Latest Weather Observations for Cobar

IDN60801

Issued at 5:32 pm EST Tuesday 1 September 2015 (issued every 30 minutes, with the page automatically refreshed every 10 minutes)

About weather observations | Map of weather stations | Latest weather observations for NSW | Other Formats
Station Details ID: 048027 Name: COBAR MO Lat: -31.48 Lon: 145.83 Height: 260.0 m
Data from the previous 72 hours. | See also: Recent months at Cobar
Date/Time
EST
Temp
°C
App
Temp
°C
Dew
Point
Rel
Hum
%
Delta-T
°C
Wind Press
QNH
hPa
Press
MSL
hPa
Rain
since 9 am
mm
Dir
 
Spd
km/h
Gust
km/h
Spd
kts
Gust
kts
01/05:30pm 17.0 13.2 -0.6 30 7.6 NE 9 13 5 7 1014.4 1014.0 0.0
01/05:00pm 17.9 14.5 -0.5 28 8.0 S 7 9 4 5 1014.5 1014.1 0.0
01/04:30pm 18.2 15.1 0.1 29 8.0 ESE 6 11 3 6 1014.5 1014.1 0.0
01/04:00pm 18.0 15.8 0.8 31 7.7 WSW 2 7 1 4 1014.9 1014.5 0.0
01/03:30pm 18.4 14.8 0.5 30 8.0 ESE 9 17 5 9 1014.8 1014.4 0.0
01/03:00pm 18.1 14.5 0.6 30 7.8 NE 9 17 5 9 1015.1 1014.7 0.0
01/02:30pm 18.6 15.9 2.5 34 7.5 ESE 6 11 3 6 1015.4 1015.1 0.0
01/02:00pm 17.8 14.7 1.1 32 7.5 SSW 7 13 4 7 1015.9 1015.6 0.0
01/01:30pm 17.3 13.9 1.6 34 7.1 ESE 9 15 5 8 1016.0 1015.7 0.0
01/01:00pm 17.7 14.3 1.9 34 7.2 WNW 9 13 5 7 1016.6 1016.2 0.0
01/12:30pm 16.7 13.3 1.6 36 6.8 SSE 9 15 5 8 1017.0 1016.6 0.0
01/12:00pm 16.8 13.8 2.0 37 6.7 S 7 9 4 5 1017.6 1017.2 0.0
01/11:30am 16.1 12.9 0.9 35 6.7 NW 7 13 4 7 1018.1 1017.7 0.0
01/11:00am 15.4 12.5 1.7 39 6.1 SW 6 11 3 6 1018.6 1018.3 0.0
01/10:30am 15.3 12.3 1.9 40 6.0 NW 7 13 4 7 1018.8 1018.5 0.0
01/10:00am 14.7 11.8 2.5 43 5.5 N 7 15 4 8 1018.8 1018.5 0.0
01/09:30am 14.0 10.9 3.5 49 4.8 N 9 15 5 8 1019.0 1019.1 0.0
01/09:00am 12.8 9.4 4.1 55 4.0 NNE 11 13 6 7 1018.9 1019.0 0.0
01/08:30am 11.3 8.3 4.0 61 3.3 NNE 9 13 5 7 1018.9 1019.0 0.0
01/08:00am 9.3 6.3 4.1 70 2.3 NNE 9 13 5 7 1019.0 1019.1 0.0
01/07:30am 7.1 4.0 3.4 77 1.6 NE 9 11 5 6 1018.5 1018.5 0.0
01/07:00am 5.1 1.4 2.2 81 1.2 NE 11 13 6 7 1018.3 1018.3 0.0
01/06:30am 5.0 1.7 2.3 83 1.1 NE 9 11 5 6 1018.0 1018.0 0.0
01/06:00am 5.1 1.4 2.4 83 1.1 NE 11 13 6 7 1017.7 1017.7 0.0
01/05:30am 5.6 2.3 2.5 80 1.3 ENE 9 11 5 6 1017.5 1017.5 0.0
01/05:00am 6.0 2.7 2.6 79 1.4 ENE 9 11 5 6 1017.4 1017.4 0.0
01/04:30am 5.8 2.5 2.7 80 1.3 ENE 9 11 5 6 1017.3 1017.3 0.0
01/04:00am 5.8 2.5 2.7 80 1.3 ENE 9 11 5 6 1017.4 1017.4 0.0
01/03:30am 5.8 2.5 2.4 79 1.4 ENE 9 11 5 6 1017.5 1017.5 0.0
01/03:00am 6.1 2.9 2.8 79 1.4 E 9 11 5 6 1017.6 1017.6 0.0
01/02:30am 6.5 3.2 2.7 77 1.6 E 9 11 5 6 1017.9 1017.9 0.0
01/02:00am 6.7 3.4 2.7 75 1.7 E 9 9 5 5 1018.2 1018.2 0.0
01/01:30am 7.0 4.1 2.5 73 1.9 SE 7 9 4 5 1018.6 1018.6 0.0
01/01:00am 7.4 4.7 2.7 72 2.0 SSE 6 7 3 4 1018.7 1018.7 0.0
01/12:30am 8.0 5.0 2.3 67 2.4 SE 7 13 4 7 1018.8 1018.9 0.0
01/12:00am 8.1 4.8 2.4 67 2.4 SE 9 11 5 6 1018.8 1018.9 0.0
 
Date/Time
EST
Temp
°C
App
Temp
°C
Dew
Point
Rel
Hum
%
Delta-T
°C
Wind Press
QNH
hPa
Press
MSL
hPa
Rain
since 9 am
mm
Dir
 
Spd
km/h
Gust
km/h
Spd
kts
Gust
kts
31/11:30pm 9.3 5.9 2.0 60 3.1 SSE 9 13 5 7 1018.8 1018.9 0.0
31/11:00pm 9.1 6.1 2.0 61 3.0 SSE 7 11 4 6 1018.9 1019.0 0.0
31/10:30pm 9.1 5.7 1.7 60 3.1 SSE 9 11 5 6 1019.0 1019.1 0.0
31/10:00pm 9.7 6.7 1.9 58 3.3 S 7 9 4 5 1019.0 1019.1 0.0
31/09:30pm 10.0 7.0 1.8 56 3.5 SSE 7 7 4 4 1018.9 1019.0 0.0
31/09:00pm 8.8 5.8 2.2 63 2.8 SE 7 9 4 5 1018.9 1019.0 0.0
31/08:30pm 10.7 7.2 1.2 52 4.0 WSW 9 9 5 5 1018.9 1019.0 0.0
31/08:00pm 11.4 7.5 1.0 49 4.4 W 11 13 6 7 1018.6 1018.6 0.0
31/07:30pm 11.6 8.2 1.9 51 4.2 WSW 9 11 5 6 1018.4 1018.4 0.0
31/07:00pm 12.3 8.5 2.0 49 4.5 WSW 11 13 6 7 1018.2 1018.2 0.0
31/06:30pm 12.2 8.8 1.8 49 4.5 WSW 9 9 5 5 1018.1 1018.1 0.0
31/06:00pm 13.1 9.8 2.2 47 4.8 SW 9 11 5 6 1017.9 1017.9 0.0
31/05:30pm 14.7 10.4 1.2 40 5.9 SW 13 19 7 10 1017.7 1017.7 0.0
31/05:00pm 15.4 10.6 0.4 36 6.5 SW 15 24 8 13 1017.6 1017.6 0.0
31/04:30pm 16.1 12.2 1.2 36 6.6 SW 11 19 6 10 1017.5 1017.5 0.0
31/04:00pm 15.9 11.2 0.9 36 6.6 SW 15 22 8 12 1017.5 1017.5 0.0
31/03:30pm 15.7 11.1 1.5 38 6.3 SW 15 24 8 13 1017.5 1017.5 0.0
31/03:00pm 15.6 10.7 2.0 40 6.1 SW 17 26 9 14 1017.7 1017.7 0.0
31/02:30pm 15.9 11.4 1.9 39 6.3 SSW 15 22 8 12 1018.1 1018.1 0.0
31/02:00pm 15.3 10.5 2.5 42 5.8 SSW 17 24 9 13 1018.5 1018.5 0.0
31/01:30pm 14.5 9.7 2.5 44 5.4 SW 17 26 9 14 1018.8 1018.9 0.0
31/01:00pm 14.2 9.0 2.3 44 5.3 SSW 19 30 10 16 1019.3 1019.4 0.0
31/12:30pm 13.9 8.6 1.9 44 5.3 SW 19 28 10 15 1019.7 1019.8 0.0
31/12:00pm 13.3 8.1 2.2 47 4.9 SW 19 30 10 16 1020.1 1020.2 0.0
31/11:30am 13.1 8.1 3.4 51 4.4 WSW 19 28 10 15 1020.7 1020.7 0.0
31/11:00am 12.5 7.7 2.8 51 4.3 SW 17 26 9 14 1020.9 1020.9 0.0
31/10:30am 12.4 7.8 3.8 55 3.9 SW 17 26 9 14 1021.1 1021.1 0.0
31/10:00am 11.3 6.6 3.4 58 3.5 SW 17 24 9 13 1021.3 1021.3 0.0
31/09:30am 11.0 7.3 4.4 64 3.0 SW 13 17 7 9 1021.3 1021.3 0.0
31/09:00am 9.4 6.5 4.5 71 2.2 SSW 9 13 5 7 1021.1 1021.1 0.0
31/08:30am 8.2 5.8 5.1 81 1.4 SW 7 11 4 6 1020.7 1020.7 0.0
31/08:00am 6.2 3.8 4.1 86 0.9 SW 6 9 3 5 1020.4 1020.4 0.0
31/07:30am 4.6 1.9 2.9 89 0.7 WSW 6 9 3 5 1020.2 1020.3 0.0
31/07:00am 3.5 0.6 2.5 93 0.4 SW 7 7 4 4 1020.0 1020.1 0.0
31/06:30am 2.8 -0.2 2.0 94 0.3 WSW 7 7 4 4 1019.9 1020.0 0.0
31/06:00am 2.6 -0.4 1.8 94 0.3 SW 7 9 4 5 1019.8 1019.9 0.0
31/05:30am 3.2 0.2 2.2 93 0.4 SW 7 9 4 5 1019.7 1019.8 0.0
31/05:00am 3.2 0.2 2.2 93 0.4 SW 7 9 4 5 1019.6 1019.7 0.0
31/04:30am 3.6 0.3 2.4 92 0.5 SW 9 13 5 7 1019.5 1019.6 0.0
31/04:00am 3.6 0.3 2.4 92 0.5 SW 9 9 5 5 1019.6 1019.7 0.0
31/03:30am 4.0 1.1 2.5 90 0.6 SW 7 9 4 5 1019.8 1019.9 0.0
31/03:00am 4.6 1.7 2.7 87 0.8 SW 7 9 4 5 1020.0 1020.1 0.0
31/02:30am 4.0 1.3 2.8 92 0.5 SW 6 7 3 4 1020.4 1020.4 0.0
31/02:00am 4.0 1.7 2.8 92 0.5 SW 4 6 2 3 1020.7 1020.7 0.0
31/01:30am 3.9 1.6 2.7 92 0.5 SW 4 6 2 3 1021.0 1021.0 0.0
31/01:00am 4.3 1.6 2.8 90 0.6 SSW 6 7 3 4 1021.1 1021.1 0.0
31/12:30am 5.8 3.0 3.2 83 1.1 SSW 7 9 4 5 1021.0 1021.0 0.0
31/12:00am 6.3 3.1 3.0 79 1.4 SSW 9 11 5 6 1021.2 1021.2 0.0
 
Date/Time
EST
Temp
°C
App
Temp
°C
Dew
Point
Rel
Hum
%
Delta-T
°C
Wind Press
QNH
hPa
Press
MSL
hPa
Rain
since 9 am
mm
Dir
 
Spd
km/h
Gust
km/h
Spd
kts
Gust
kts
30/11:30pm 6.2 3.4 3.1 80 1.3 SSW 7 9 4 5 1021.3 1021.3 0.0
30/11:00pm 6.8 4.0 3.3 78 1.5 SSW 7 9 4 5 1021.5 1021.5 0.0
30/10:30pm 6.7 3.9 3.4 79 1.4 SW 7 9 4 5 1021.9 1021.9 0.0
30/10:00pm 7.5 4.3 3.3 75 1.8 SW 9 13 5 7 1021.9 1021.9 0.0
30/09:30pm 8.1 4.5 3.2 71 2.1 SW 11 13 6 7 1021.9 1021.9 0.0
30/09:00pm 8.7 5.1 3.1 68 2.4 SSW 11 15 6 8 1021.7 1021.7 0.0
30/08:30pm 9.0 5.4 3.2 67 2.5 SW 11 13 6 7 1021.5 1021.5 0.0
30/08:00pm 9.8 6.2 2.9 62 3.0 SSW 11 15 6 8 1021.3 1021.3 0.0
30/07:30pm 9.9 6.3 3.0 62 3.0 SW 11 13 6 7 1021.1 1021.1 0.0
30/07:00pm 10.3 7.5 3.3 62 3.1 SSW 7 9 4 5 1020.8 1020.8 0.0
30/06:30pm 11.7 8.5 3.2 56 3.8 SSW 9 13 5 7 1020.5 1020.5 0.0
30/06:00pm 13.0 8.5 2.1 47 4.8 SSW 15 22 8 12 1020.2 1020.3 0.0
30/05:30pm 13.8 9.3 2.0 44 5.2 SW 15 22 8 12 1019.9 1020.0 0.0
30/05:00pm 14.0 9.6 2.6 46 5.1 SSW 15 24 8 13 1019.8 1019.9 0.0
30/04:30pm 14.3 10.3 2.8 46 5.2 SSW 13 20 7 11 1019.8 1019.9 0.0
30/04:00pm 15.0 10.1 2.3 42 5.7 S 17 28 9 15 1019.9 1020.0 0.0
30/03:30pm 14.6 10.2 2.6 44 5.4 SSW 15 24 8 13 1020.2 1020.3 0.0
30/03:00pm 14.9 10.9 3.1 45 5.4 SSW 13 22 7 12 1020.4 1020.4 0.0
30/02:30pm 14.3 9.6 3.1 47 5.1 SSW 17 24 9 13 1020.6 1020.6 0.0
30/02:00pm 14.5 9.8 3.3 47 5.1 SSW 17 24 9 13 1020.8 1020.8 0.0
30/01:30pm 14.3 10.0 3.3 47 5.0 SSW 15 30 8 16 1021.2 1021.2 0.0
30/01:00pm 13.5 9.2 3.1 49 4.7 SSW 15 24 8 13 1021.7 1021.7 0.0
30/12:30pm 13.6 9.7 3.5 50 4.6 S 13 20 7 11 1022.1 1022.2 0.0
30/12:00pm 12.7 8.0 3.4 53 4.2 SSW 17 24 9 13 1022.6 1022.7 0.0
30/11:30am 11.8 7.9 3.5 57 3.7 SSW 13 24 7 13 1023.0 1023.1 0.0
30/11:00am 11.6 7.4 3.6 58 3.6 SSW 15 22 8 12 1023.3 1023.4 0.0
30/10:30am 11.1 6.0 2.9 57 3.6 SSW 19 26 10 14 1023.5 1023.6 0.0
30/10:00am 10.7 5.4 2.9 58 3.4 SSW 20 30 11 16 1023.5 1023.6 0.0
30/09:30am 10.3 5.5 2.7 59 3.3 SSW 17 26 9 14 1023.6 1023.7 0.0
30/09:00am 9.4 4.9 2.1 60 3.1 SSW 15 22 8 12 1023.7 1023.8 0.0
30/08:30am 8.0 3.9 2.0 66 2.5 S 13 19 7 10 1023.5 1023.6 0.0
30/08:00am 6.1 2.7 1.7 73 1.8 SSW 9 17 5 9 1023.2 1023.3 0.0
30/07:30am 3.9 0.8 1.6 85 0.9 SSW 7 9 4 5 1022.9 1023.0 0.0
30/07:00am 2.5 -0.7 0.7 88 0.7 SW 7 9 4 5 1022.7 1022.8 0.0
30/06:30am 2.2 -1.4 0.6 89 0.6 SW 9 9 5 5 1022.5 1022.6 0.0
30/06:00am 2.5 -1.1 0.7 88 0.7 SW 9 13 5 7 1022.4 1022.5 0.0
30/05:30am 3.5 0.4 1.2 85 0.9 SSW 7 9 4 5 1022.2 1022.3 0.0
30/05:00am 3.8 0.3 1.3 84 1.0 S 9 11 5 6 1022.2 1022.3 0.0
30/04:30am 4.6 1.1 1.3 79 1.3 S 9 13 5 7 1022.3 1022.4 0.0
30/04:00am 5.1 1.2 1.3 76 1.5 S 11 15 6 8 1022.2 1022.3 0.0
30/03:30am 5.5 1.6 1.2 74 1.7 S 11 15 6 8 1022.4 1022.5 0.0
30/03:00am 5.9 2.0 1.2 72 1.9 S 11 15 6 8 1022.6 1022.7 0.0
30/02:30am 6.1 3.1 1.7 73 1.8 S 7 9 4 5 1022.9 1023.0 0.0
30/02:00am 6.7 3.7 1.8 71 2.0 S 7 9 4 5 1023.2 1023.3 0.0
30/01:30am 7.6 4.1 1.5 65 2.5 S 9 15 5 8 1023.5 1023.6 0.0
30/01:00am 8.6 4.3 1.3 60 3.0 S 13 20 7 11 1023.9 1024.0 0.0
30/12:30am 9.4 5.1 1.2 56 3.4 S 13 20 7 11 1024.0 1024.1 0.0
30/12:00am 10.2 5.1 0.5 51 4.0 S 17 24 9 13 1024.0 1024.1 0.0
 
Date/Time
EST
Temp
°C
App
Temp
°C
Dew
Point
Rel
Hum
%
Delta-T
°C
Wind Press
QNH
hPa
Press
MSL
hPa
Rain
since 9 am
mm
Dir
 
Spd
km/h
Gust
km/h
Spd
kts
Gust
kts
29/11:30pm 10.6 6.4 1.9 55 3.7 S 13 20 7 11 1024.1 1024.2 0.0
29/11:00pm 10.8 6.8 2.8 57 3.5 S 13 17 7 9 1024.2 1024.3 0.0
29/10:30pm 11.2 7.5 2.5 55 3.8 S 11 17 6 9 1024.2 1024.3 0.0
29/10:00pm 11.4 6.9 2.4 54 3.9 S 15 24 8 13 1024.2 1024.3 0.0
29/09:30pm 11.7 7.4 3.1 55 3.8 S 15 24 8 13 1024.2 1024.3 0.0
29/09:00pm 11.9 8.8 3.4 56 3.8 SSW 9 15 5 8 1023.9 1024.0 0.0
29/08:30pm 11.9 9.1 3.1 55 3.9 SSW 7 13 4 7 1023.7 1023.8 0.0
29/08:00pm 11.9 9.1 3.4 56 3.8 SSW 7 9 4 5 1023.5 1023.6 0.0
29/07:30pm 11.8 9.1 3.8 58 3.6 SW 7 9 4 5 1023.5 1023.6 0.0
29/07:00pm 12.0 9.5 3.8 57 3.7 SW 6 7 3 4 1023.2 1023.3 0.0
29/06:30pm 12.4 9.6 3.0 52 4.2 SW 7 9 4 5 1023.1 1023.2 0.0
29/06:00pm 12.7 9.8 2.5 50 4.5 SSW 7 11 4 6 1022.7 1022.8 0.0

Other Formats:

Comma delimited format used in spreadsheet applications
http://www.bom.gov.au/fwo/IDN60801/IDN60801.94711.axf

JavaScript Object Notation format (JSON) in row-major order
http://www.bom.gov.au/fwo/IDN60801/IDN60801.94711.json